Main page
METAR-TAF:

METAR-TAF

Airports :

Jack Barstow Municipal Airport

Midland, Michigan, United States

latitude: 43-39-46N, longitude: 084-15-41W, elevation: 194 m

Current weather observation

The report was made 19 minutes ago, at 13:15 UTC
Wind 4 kt from the East/Northeast
Temperature 22°C
Humidity 88%
Pressure 1016 hPa
Visibility: 2.8 km
Overcast at a height of 100 ft
mist

METAR: KIKW 221315Z AUTO 06004KT 1 3/4SM BR OVC001 22/20 A2999 RMK AO2

Time: 09:34 (13:34 UTC)


TAF: missing

Weather observations and forecasts of more than 4000 airports (METAR and TAF reports).

The available stations are represented by yellow and red dots on the map.

Hover mouse over dot to see the name of the station.

Then click to see weather observations and forecasts.

To change the map : click on the green buttons with a black cross to zoom in, on the green button with a dash to zoom out, or on the green arrows for adjacent maps.


METAR-TAF: